Latest  Newer  Older  Last 2 hours animation  Current image  Latest image 
Rain/snow radar  Infrared sat images 
Real-time lightning map

All time is UTC (add 2 hours to UTC in wintertime, 3 hours to UTC in DST for Latvia local time)

2019/02/17 16:20 EVRA 171620Z 35007KT CAVOK 01/M01 Q1020 R36/190095 NOSIG
2019/02/17 16:20 EVLA 171620Z AUTO VRB02KT 9999 OVC070/// 04/00 Q1021
2019/02/17 16:20 EVVA 171620Z AUTO 26003KT CAVOK M00/M01 Q1021
2019/02/17 16:20 EYKA 171620Z 29005KT 260V320 9999 OVC025 05/02 Q1020 R08/190095
2019/02/17 16:20 EYPA 171620Z VRB01KT 3900 BR FEW002 OVC012 04/04 Q1021 R19/1///95
2019/02/17 16:20 EYSA 171620Z 28006KT CAVOK 03/01 Q1020 R32R/29//95 BLU NOSIG
2019/02/17 16:20 EYVI 171620Z 31005KT 9999 FEW021 03/01 Q1019 R01/1///95 NOSIG
2019/02/17 15:50 EEKA 171550Z 27006KT 220V330 CAVOK 01/M00 Q1020
2019/02/17 15:50 EEKE 171550Z 34005KT 290V020 CAVOK 02/M01 Q1020 R17/290095
2019/02/17 13:50 EEPU 171350Z 29008KT CAVOK 03/M02 Q1017
2019/02/17 16:20 EETN 171620Z 29008KT CAVOK 01/M02 Q1018 R08/19//95 NOSIG
2019/02/17 15:50 EETU 171550Z AUTO 29007KT 9999 NCD 02/M04 Q1016
   RIGA AIRPORT     EVRA               56 55N  023 58E   10   X     T          6 LV
   LIEPAJA INTL     EVLA        26406  56 31N  021 06E    4   X                8 LV
   VENTPILS         EVVA               57 21N  021 33E    6   X                8 LV
   KAUNAS           EYKA               54 54N  023 55E   77   X     T          6 LT
   PALANGA INTL     EYPA               55 55N  021 03E   10   X                6 LT
   SIAULIAI INTL    EYSA               55 54N  023 24E  135   X     T          6 LT
   VILNIUS INTL     EYVI        26730  54 38N  025 17E  197   X     T          6 LT
   KARDLA           EEKA        26116  58 59N  022 50E    4   X                8 EE
   KURESSAARE       EEKE               58 14N  022 31E    4   X                8 EE
   PARNU            EEPU               58 25N  024 28E   14   X                8 EE
   TALLINN          EETN        26038  59 24N  024 49E   40   X     T          8 EE
   TARTU            EETU               58 19N  026 41E   67   X                8 EE

cloud coverage image from sat24.com and METAR data from weather.noaa.gov